sensor_id;sensor_type;location;lat;lon;timestamp;P1;durP1;ratioP1;P2;durP2;ratioP2
72791;SDS011;60907;53.268;8.764;2023-02-28T00:00:49;4.07;;;1.67;;
72791;SDS011;60907;53.268;8.764;2023-02-28T00:03:14;3.42;;;1.70;;
72791;SDS011;60907;53.268;8.764;2023-02-28T00:05:40;2.53;;;1.50;;
72791;SDS011;60907;53.268;8.764;2023-02-28T00:08:06;2.85;;;1.63;;
72791;SDS011;60907;53.268;8.764;2023-02-28T00:10:32;4.68;;;2.35;;
72791;SDS011;60907;53.268;8.764;2023-02-28T00:13:02;2.58;;;1.23;;
72791;SDS011;60907;53.268;8.764;2023-02-28T00:15:30;3.97;;;1.30;;
72791;SDS011;60907;53.268;8.764;2023-02-28T00:17:55;2.95;;;1.50;;
72791;SDS011;60907;53.268;8.764;2023-02-28T00:20:21;4.95;;;2.03;;
72791;SDS011;60907;53.268;8.764;2023-02-28T00:22:48;3.92;;;1.67;;
72791;SDS011;60907;53.268;8.764;2023-02-28T00:25:16;3.00;;;2.00;;
72791;SDS011;60907;53.268;8.764;2023-02-28T00:27:46;3.15;;;1.50;;
72791;SDS011;60907;53.268;8.764;2023-02-28T00:30:13;5.55;;;1.70;;
72791;SDS011;60907;53.268;8.764;2023-02-28T00:32:41;6.15;;;2.03;;
72791;SDS011;60907;53.268;8.764;2023-02-28T00:35:07;5.05;;;1.73;;
72791;SDS011;60907;53.268;8.764;2023-02-28T00:37:33;2.97;;;1.70;;
72791;SDS011;60907;53.268;8.764;2023-02-28T00:39:58;4.80;;;2.10;;
72791;SDS011;60907;53.268;8.764;2023-02-28T00:42:24;3.30;;;2.00;;
72791;SDS011;60907;53.268;8.764;2023-02-28T00:44:50;5.20;;;2.50;;
72791;SDS011;60907;53.268;8.764;2023-02-28T00:47:15;5.18;;;2.35;;
72791;SDS011;60907;53.268;8.764;2023-02-28T00:49:41;5.32;;;2.78;;
72791;SDS011;60907;53.268;8.764;2023-02-28T00:52:06;7.55;;;2.42;;
72791;SDS011;60907;53.268;8.764;2023-02-28T00:54:32;4.43;;;2.30;;
72791;SDS011;60907;53.268;8.764;2023-02-28T00:56:58;5.97;;;2.30;;
72791;SDS011;60907;53.268;8.764;2023-02-28T00:59:23;4.97;;;2.72;;
72791;SDS011;60907;53.268;8.764;2023-02-28T01:01:48;4.10;;;2.15;;
72791;SDS011;60907;53.268;8.764;2023-02-28T01:04:14;4.13;;;1.90;;
72791;SDS011;60907;53.268;8.764;2023-02-28T01:06:39;6.00;;;2.08;;
72791;SDS011;60907;53.268;8.764;2023-02-28T01:09:05;5.10;;;1.83;;
72791;SDS011;60907;53.268;8.764;2023-02-28T01:11:32;5.38;;;2.05;;
72791;SDS011;60907;53.268;8.764;2023-02-28T01:13:57;3.80;;;2.15;;
72791;SDS011;60907;53.268;8.764;2023-02-28T01:16:23;3.22;;;1.85;;
72791;SDS011;60907;53.268;8.764;2023-02-28T01:18:49;3.78;;;1.67;;
72791;SDS011;60907;53.268;8.764;2023-02-28T01:21:15;5.67;;;2.10;;
72791;SDS011;60907;53.268;8.764;2023-02-28T01:23:42;5.55;;;2.33;;
72791;SDS011;60907;53.268;8.764;2023-02-28T01:26:09;4.70;;;2.03;;
72791;SDS011;60907;53.268;8.764;2023-02-28T01:28:36;5.47;;;1.95;;
72791;SDS011;60907;53.268;8.764;2023-02-28T01:31:01;4.68;;;2.03;;
72791;SDS011;60907;53.268;8.764;2023-02-28T01:33:27;5.32;;;2.00;;
72791;SDS011;60907;53.268;8.764;2023-02-28T01:36:00;6.15;;;2.20;;
72791;SDS011;60907;53.268;8.764;2023-02-28T01:38:29;5.35;;;2.50;;
72791;SDS011;60907;53.268;8.764;2023-02-28T01:40:55;5.15;;;2.10;;
72791;SDS011;60907;53.268;8.764;2023-02-28T01:43:23;5.35;;;2.00;;
72791;SDS011;60907;53.268;8.764;2023-02-28T01:45:51;3.78;;;1.90;;
72791;SDS011;60907;53.268;8.764;2023-02-28T01:48:17;4.38;;;2.45;;
72791;SDS011;60907;53.268;8.764;2023-02-28T01:50:44;6.70;;;2.92;;
72791;SDS011;60907;53.268;8.764;2023-02-28T01:53:11;5.05;;;2.25;;
72791;SDS011;60907;53.268;8.764;2023-02-28T01:55:39;5.70;;;2.55;;
72791;SDS011;60907;53.268;8.764;2023-02-28T01:58:06;5.13;;;2.47;;
72791;SDS011;60907;53.268;8.764;2023-02-28T02:00:32;7.47;;;2.42;;
72791;SDS011;60907;53.268;8.764;2023-02-28T02:02:58;5.13;;;2.45;;
72791;SDS011;60907;53.268;8.764;2023-02-28T02:05:27;4.25;;;2.85;;
72791;SDS011;60907;53.268;8.764;2023-02-28T02:07:56;5.55;;;2.25;;
72791;SDS011;60907;53.268;8.764;2023-02-28T02:10:30;6.57;;;2.63;;
72791;SDS011;60907;53.268;8.764;2023-02-28T02:36:52;5.95;;;3.08;;
72791;SDS011;60907;53.268;8.764;2023-02-28T02:39:40;5.93;;;2.70;;
72791;SDS011;60907;53.268;8.764;2023-02-28T02:42:15;5.55;;;2.78;;
72791;SDS011;60907;53.268;8.764;2023-02-28T02:44:51;5.53;;;3.38;;
72791;SDS011;60907;53.268;8.764;2023-02-28T02:47:22;7.30;;;3.10;;
72791;SDS011;60907;53.268;8.764;2023-02-28T02:49:50;4.45;;;3.00;;
72791;SDS011;60907;53.268;8.764;2023-02-28T02:52:18;5.60;;;2.70;;
72791;SDS011;60907;53.268;8.764;2023-02-28T02:54:46;6.20;;;2.72;;
72791;SDS011;60907;53.268;8.764;2023-02-28T02:57:15;4.88;;;2.75;;
72791;SDS011;60907;53.268;8.764;2023-02-28T02:59:46;5.88;;;2.90;;
72791;SDS011;60907;53.268;8.764;2023-02-28T03:02:14;4.78;;;3.63;;
72791;SDS011;60907;53.268;8.764;2023-02-28T03:04:51;8.32;;;3.38;;
72791;SDS011;60907;53.268;8.764;2023-02-28T03:07:17;4.85;;;2.58;;
72791;SDS011;60907;53.268;8.764;2023-02-28T03:09:50;7.40;;;3.70;;
72791;SDS011;60907;53.268;8.764;2023-02-28T03:12:17;5.10;;;2.88;;
72791;SDS011;60907;53.268;8.764;2023-02-28T03:17:31;7.13;;;3.33;;
72791;SDS011;60907;53.268;8.764;2023-02-28T03:20:07;7.93;;;3.35;;
72791;SDS011;60907;53.268;8.764;2023-02-28T03:22:58;10.10;;;3.15;;
72791;SDS011;60907;53.268;8.764;2023-02-28T03:28:24;7.80;;;3.60;;
72791;SDS011;60907;53.268;8.764;2023-02-28T03:36:29;7.72;;;4.10;;
72791;SDS011;60907;53.268;8.764;2023-02-28T03:39:00;8.77;;;3.95;;
72791;SDS011;60907;53.268;8.764;2023-02-28T03:41:40;6.00;;;3.20;;
72791;SDS011;60907;53.268;8.764;2023-02-28T03:44:11;6.60;;;3.20;;
72791;SDS011;60907;53.268;8.764;2023-02-28T03:46:41;6.65;;;3.72;;
72791;SDS011;60907;53.268;8.764;2023-02-28T03:49:11;5.63;;;3.20;;
72791;SDS011;60907;53.268;8.764;2023-02-28T03:51:41;5.85;;;3.15;;
72791;SDS011;60907;53.268;8.764;2023-02-28T03:54:09;6.13;;;2.83;;
72791;SDS011;60907;53.268;8.764;2023-02-28T03:56:39;6.75;;;3.60;;
72791;SDS011;60907;53.268;8.764;2023-02-28T04:01:43;9.80;;;3.90;;
72791;SDS011;60907;53.268;8.764;2023-02-28T04:04:10;5.30;;;3.25;;
72791;SDS011;60907;53.268;8.764;2023-02-28T04:06:36;6.97;;;3.45;;
72791;SDS011;60907;53.268;8.764;2023-02-28T04:09:02;6.38;;;3.47;;
72791;SDS011;60907;53.268;8.764;2023-02-28T04:14:07;9.07;;;3.38;;
72791;SDS011;60907;53.268;8.764;2023-02-28T04:16:34;7.90;;;4.80;;
72791;SDS011;60907;53.268;8.764;2023-02-28T04:19:03;7.78;;;3.72;;
72791;SDS011;60907;53.268;8.764;2023-02-28T04:24:09;5.80;;;3.63;;
72791;SDS011;60907;53.268;8.764;2023-02-28T04:26:39;8.43;;;4.10;;
72791;SDS011;60907;53.268;8.764;2023-02-28T04:29:05;10.45;;;4.03;;
72791;SDS011;60907;53.268;8.764;2023-02-28T04:31:32;5.35;;;3.30;;
72791;SDS011;60907;53.268;8.764;2023-02-28T04:33:58;10.30;;;3.70;;
72791;SDS011;60907;53.268;8.764;2023-02-28T04:36:23;8.57;;;4.05;;
72791;SDS011;60907;53.268;8.764;2023-02-28T04:38:49;6.13;;;3.47;;
72791;SDS011;60907;53.268;8.764;2023-02-28T04:41:15;7.60;;;4.30;;
72791;SDS011;60907;53.268;8.764;2023-02-28T04:43:41;7.07;;;3.15;;
72791;SDS011;60907;53.268;8.764;2023-02-28T04:46:06;5.78;;;3.45;;
72791;SDS011;60907;53.268;8.764;2023-02-28T04:48:33;6.30;;;3.75;;
72791;SDS011;60907;53.268;8.764;2023-02-28T04:55:52;6.65;;;3.92;;
72791;SDS011;60907;53.268;8.764;2023-02-28T04:58:17;7.57;;;4.20;;
72791;SDS011;60907;53.268;8.764;2023-02-28T05:00:42;6.27;;;3.50;;
72791;SDS011;60907;53.268;8.764;2023-02-28T05:03:08;6.23;;;3.20;;
72791;SDS011;60907;53.268;8.764;2023-02-28T05:05:34;8.15;;;3.22;;
72791;SDS011;60907;53.268;8.764;2023-02-28T05:08:00;6.87;;;3.53;;
72791;SDS011;60907;53.268;8.764;2023-02-28T05:10:25;9.68;;;3.95;;
72791;SDS011;60907;53.268;8.764;2023-02-28T05:12:51;5.63;;;2.97;;
72791;SDS011;60907;53.268;8.764;2023-02-28T05:15:17;7.43;;;3.20;;
72791;SDS011;60907;53.268;8.764;2023-02-28T05:17:42;8.97;;;3.43;;
72791;SDS011;60907;53.268;8.764;2023-02-28T05:20:08;11.35;;;6.07;;
72791;SDS011;60907;53.268;8.764;2023-02-28T05:22:36;10.90;;;5.40;;
72791;SDS011;60907;53.268;8.764;2023-02-28T05:25:02;11.35;;;4.80;;
72791;SDS011;60907;53.268;8.764;2023-02-28T05:27:29;10.10;;;5.45;;
72791;SDS011;60907;53.268;8.764;2023-02-28T05:29:54;10.27;;;6.28;;
72791;SDS011;60907;53.268;8.764;2023-02-28T05:32:20;10.63;;;5.50;;
72791;SDS011;60907;53.268;8.764;2023-02-28T05:34:45;8.13;;;5.00;;
72791;SDS011;60907;53.268;8.764;2023-02-28T05:37:11;7.30;;;4.63;;
72791;SDS011;60907;53.268;8.764;2023-02-28T05:39:37;6.20;;;3.78;;
72791;SDS011;60907;53.268;8.764;2023-02-28T05:42:03;5.93;;;3.55;;
72791;SDS011;60907;53.268;8.764;2023-02-28T05:44:29;7.53;;;4.55;;
72791;SDS011;60907;53.268;8.764;2023-02-28T05:46:54;8.23;;;3.90;;
72791;SDS011;60907;53.268;8.764;2023-02-28T05:49:20;6.13;;;3.50;;
72791;SDS011;60907;53.268;8.764;2023-02-28T05:51:45;7.63;;;3.55;;
72791;SDS011;60907;53.268;8.764;2023-02-28T05:54:11;5.88;;;3.47;;
72791;SDS011;60907;53.268;8.764;2023-02-28T05:56:36;6.13;;;3.30;;
72791;SDS011;60907;53.268;8.764;2023-02-28T05:59:04;8.52;;;3.80;;
72791;SDS011;60907;53.268;8.764;2023-02-28T06:01:42;7.00;;;3.30;;
72791;SDS011;60907;53.268;8.764;2023-02-28T06:04:13;6.88;;;3.53;;
72791;SDS011;60907;53.268;8.764;2023-02-28T06:06:42;8.52;;;3.38;;
72791;SDS011;60907;53.268;8.764;2023-02-28T06:09:11;8.95;;;3.50;;
72791;SDS011;60907;53.268;8.764;2023-02-28T06:11:37;5.28;;;3.65;;
72791;SDS011;60907;53.268;8.764;2023-02-28T06:14:02;7.22;;;3.35;;
72791;SDS011;60907;53.268;8.764;2023-02-28T06:16:28;6.50;;;3.13;;
72791;SDS011;60907;53.268;8.764;2023-02-28T06:18:57;4.93;;;3.17;;
72791;SDS011;60907;53.268;8.764;2023-02-28T06:21:23;6.22;;;3.35;;
72791;SDS011;60907;53.268;8.764;2023-02-28T06:23:48;6.97;;;3.22;;
72791;SDS011;60907;53.268;8.764;2023-02-28T06:26:14;5.15;;;2.90;;
72791;SDS011;60907;53.268;8.764;2023-02-28T06:28:39;5.78;;;3.30;;
72791;SDS011;60907;53.268;8.764;2023-02-28T06:31:06;7.28;;;3.67;;
72791;SDS011;60907;53.268;8.764;2023-02-28T06:33:32;6.40;;;3.05;;
72791;SDS011;60907;53.268;8.764;2023-02-28T06:35:58;6.55;;;3.15;;
72791;SDS011;60907;53.268;8.764;2023-02-28T06:38:23;6.15;;;3.67;;
72791;SDS011;60907;53.268;8.764;2023-02-28T06:40:52;7.67;;;3.77;;
72791;SDS011;60907;53.268;8.764;2023-02-28T06:43:19;6.47;;;3.33;;
72791;SDS011;60907;53.268;8.764;2023-02-28T06:45:44;8.97;;;3.33;;
72791;SDS011;60907;53.268;8.764;2023-02-28T06:48:09;5.33;;;3.30;;
72791;SDS011;60907;53.268;8.764;2023-02-28T06:50:35;6.18;;;2.95;;
72791;SDS011;60907;53.268;8.764;2023-02-28T06:53:01;9.20;;;3.67;;
72791;SDS011;60907;53.268;8.764;2023-02-28T06:55:26;6.93;;;3.27;;
72791;SDS011;60907;53.268;8.764;2023-02-28T06:57:51;5.47;;;3.30;;
72791;SDS011;60907;53.268;8.764;2023-02-28T07:00:17;7.27;;;3.43;;
72791;SDS011;60907;53.268;8.764;2023-02-28T07:02:42;6.30;;;3.20;;
72791;SDS011;60907;53.268;8.764;2023-02-28T07:05:08;6.47;;;3.73;;
72791;SDS011;60907;53.268;8.764;2023-02-28T07:07:33;6.55;;;2.83;;
72791;SDS011;60907;53.268;8.764;2023-02-28T07:10:01;5.43;;;2.90;;
72791;SDS011;60907;53.268;8.764;2023-02-28T07:12:26;6.60;;;2.90;;
72791;SDS011;60907;53.268;8.764;2023-02-28T07:14:52;6.25;;;3.72;;
72791;SDS011;60907;53.268;8.764;2023-02-28T07:17:17;6.47;;;3.25;;
72791;SDS011;60907;53.268;8.764;2023-02-28T07:19:43;3.83;;;2.80;;
72791;SDS011;60907;53.268;8.764;2023-02-28T07:22:08;5.82;;;3.10;;
72791;SDS011;60907;53.268;8.764;2023-02-28T07:24:33;11.23;;;3.35;;
72791;SDS011;60907;53.268;8.764;2023-02-28T07:26:59;4.97;;;2.67;;
72791;SDS011;60907;53.268;8.764;2023-02-28T07:29:25;6.47;;;3.38;;
72791;SDS011;60907;53.268;8.764;2023-02-28T07:31:50;5.47;;;3.08;;
72791;SDS011;60907;53.268;8.764;2023-02-28T07:34:18;5.50;;;2.60;;
72791;SDS011;60907;53.268;8.764;2023-02-28T07:36:44;4.90;;;3.00;;
72791;SDS011;60907;53.268;8.764;2023-02-28T07:39:09;6.15;;;2.45;;
72791;SDS011;60907;53.268;8.764;2023-02-28T07:41:35;5.55;;;2.90;;
72791;SDS011;60907;53.268;8.764;2023-02-28T07:44:04;7.20;;;3.10;;
72791;SDS011;60907;53.268;8.764;2023-02-28T07:46:30;7.88;;;2.83;;
72791;SDS011;60907;53.268;8.764;2023-02-28T07:49:00;6.53;;;3.03;;
72791;SDS011;60907;53.268;8.764;2023-02-28T07:51:27;6.82;;;3.08;;
72791;SDS011;60907;53.268;8.764;2023-02-28T07:53:56;4.95;;;2.50;;
72791;SDS011;60907;53.268;8.764;2023-02-28T07:56:22;3.83;;;2.50;;
72791;SDS011;60907;53.268;8.764;2023-02-28T07:58:47;7.32;;;2.55;;
72791;SDS011;60907;53.268;8.764;2023-02-28T08:01:12;5.55;;;2.30;;
72791;SDS011;60907;53.268;8.764;2023-02-28T08:03:38;8.45;;;2.78;;
72791;SDS011;60907;53.268;8.764;2023-02-28T08:06:05;3.50;;;2.15;;
72791;SDS011;60907;53.268;8.764;2023-02-28T08:08:31;6.50;;;2.90;;
72791;SDS011;60907;53.268;8.764;2023-02-28T08:11:00;3.38;;;1.92;;
72791;SDS011;60907;53.268;8.764;2023-02-28T08:13:27;3.67;;;2.03;;
72791;SDS011;60907;53.268;8.764;2023-02-28T08:15:53;4.85;;;2.03;;
72791;SDS011;60907;53.268;8.764;2023-02-28T08:18:20;4.05;;;1.92;;
72791;SDS011;60907;53.268;8.764;2023-02-28T08:20:46;6.30;;;1.95;;
72791;SDS011;60907;53.268;8.764;2023-02-28T08:23:11;5.20;;;2.20;;
72791;SDS011;60907;53.268;8.764;2023-02-28T08:25:36;4.00;;;1.67;;
72791;SDS011;60907;53.268;8.764;2023-02-28T08:28:02;3.33;;;2.00;;
72791;SDS011;60907;53.268;8.764;2023-02-28T08:30:27;2.70;;;1.20;;
72791;SDS011;60907;53.268;8.764;2023-02-28T08:32:53;5.20;;;1.73;;
72791;SDS011;60907;53.268;8.764;2023-02-28T08:35:19;2.85;;;1.48;;
72791;SDS011;60907;53.268;8.764;2023-02-28T08:37:44;3.55;;;1.30;;
72791;SDS011;60907;53.268;8.764;2023-02-28T08:40:12;3.50;;;1.27;;
72791;SDS011;60907;53.268;8.764;2023-02-28T08:42:43;2.95;;;1.23;;
72791;SDS011;60907;53.268;8.764;2023-02-28T08:45:11;1.98;;;1.40;;
72791;SDS011;60907;53.268;8.764;2023-02-28T08:47:37;2.38;;;1.10;;
72791;SDS011;60907;53.268;8.764;2023-02-28T08:50:03;2.08;;;1.00;;
72791;SDS011;60907;53.268;8.764;2023-02-28T08:52:29;1.60;;;0.82;;
72791;SDS011;60907;53.268;8.764;2023-02-28T08:54:55;2.63;;;0.90;;
72791;SDS011;60907;53.268;8.764;2023-02-28T08:57:20;4.80;;;0.90;;
72791;SDS011;60907;53.268;8.764;2023-02-28T08:59:46;4.63;;;0.90;;
72791;SDS011;60907;53.268;8.764;2023-02-28T09:02:14;2.50;;;0.50;;
72791;SDS011;60907;53.268;8.764;2023-02-28T09:04:40;1.75;;;0.93;;
72791;SDS011;60907;53.268;8.764;2023-02-28T09:07:06;2.38;;;0.90;;
72791;SDS011;60907;53.268;8.764;2023-02-28T09:09:31;1.48;;;0.80;;
72791;SDS011;60907;53.268;8.764;2023-02-28T09:11:57;2.38;;;1.00;;
72791;SDS011;60907;53.268;8.764;2023-02-28T09:14:22;1.23;;;0.70;;
72791;SDS011;60907;53.268;8.764;2023-02-28T09:16:48;1.30;;;0.98;;
72791;SDS011;60907;53.268;8.764;2023-02-28T09:19:13;1.75;;;0.90;;
72791;SDS011;60907;53.268;8.764;2023-02-28T09:21:39;1.58;;;1.00;;
72791;SDS011;60907;53.268;8.764;2023-02-28T09:24:04;1.77;;;0.70;;
72791;SDS011;60907;53.268;8.764;2023-02-28T09:26:30;1.98;;;0.68;;
72791;SDS011;60907;53.268;8.764;2023-02-28T09:28:55;2.20;;;0.55;;
72791;SDS011;60907;53.268;8.764;2023-02-28T09:31:24;2.13;;;0.60;;
72791;SDS011;60907;53.268;8.764;2023-02-28T09:33:53;2.50;;;0.90;;
72791;SDS011;60907;53.268;8.764;2023-02-28T09:36:20;3.15;;;0.70;;
72791;SDS011;60907;53.268;8.764;2023-02-28T09:38:46;1.50;;;0.47;;
72791;SDS011;60907;53.268;8.764;2023-02-28T09:41:16;0.82;;;0.40;;
72791;SDS011;60907;53.268;8.764;2023-02-28T09:43:44;1.38;;;0.52;;
72791;SDS011;60907;53.268;8.764;2023-02-28T09:49:03;1.52;;;0.57;;
72791;SDS011;60907;53.268;8.764;2023-02-28T09:54:15;1.10;;;0.40;;
72791;SDS011;60907;53.268;8.764;2023-02-28T09:56:44;1.77;;;0.43;;
72791;SDS011;60907;53.268;8.764;2023-02-28T10:04:50;2.40;;;0.55;;
72791;SDS011;60907;53.268;8.764;2023-02-28T10:07:46;1.23;;;0.60;;
72791;SDS011;60907;53.268;8.764;2023-02-28T10:10:44;3.10;;;0.40;;
72791;SDS011;60907;53.268;8.764;2023-02-28T10:16:10;1.77;;;0.70;;
72791;SDS011;60907;53.268;8.764;2023-02-28T10:18:49;2.28;;;0.60;;
72791;SDS011;60907;53.268;8.764;2023-02-28T10:21:19;2.20;;;0.82;;
72791;SDS011;60907;53.268;8.764;2023-02-28T10:23:47;1.67;;;0.80;;
72791;SDS011;60907;53.268;8.764;2023-02-28T10:26:13;2.97;;;1.20;;
72791;SDS011;60907;53.268;8.764;2023-02-28T10:28:41;2.08;;;1.05;;
72791;SDS011;60907;53.268;8.764;2023-02-28T10:31:08;3.60;;;1.00;;
72791;SDS011;60907;53.268;8.764;2023-02-28T10:33:36;2.65;;;1.15;;
72791;SDS011;60907;53.268;8.764;2023-02-28T10:36:03;2.50;;;0.82;;
72791;SDS011;60907;53.268;8.764;2023-02-28T10:41:26;1.40;;;0.97;;
72791;SDS011;60907;53.268;8.764;2023-02-28T10:43:52;3.10;;;1.25;;
72791;SDS011;60907;53.268;8.764;2023-02-28T10:46:18;2.43;;;0.80;;
72791;SDS011;60907;53.268;8.764;2023-02-28T10:49:13;2.42;;;1.00;;
72791;SDS011;60907;53.268;8.764;2023-02-28T10:51:41;2.13;;;1.13;;
72791;SDS011;60907;53.268;8.764;2023-02-28T10:54:14;1.80;;;1.33;;
72791;SDS011;60907;53.268;8.764;2023-02-28T10:56:41;3.70;;;1.00;;
72791;SDS011;60907;53.268;8.764;2023-02-28T11:01:52;1.52;;;0.73;;
72791;SDS011;60907;53.268;8.764;2023-02-28T11:06:57;4.82;;;1.50;;
72791;SDS011;60907;53.268;8.764;2023-02-28T11:09:32;2.85;;;0.90;;
72791;SDS011;60907;53.268;8.764;2023-02-28T11:12:04;2.17;;;1.13;;
72791;SDS011;60907;53.268;8.764;2023-02-28T11:14:39;3.20;;;0.90;;
72791;SDS011;60907;53.268;8.764;2023-02-28T11:17:19;1.73;;;1.00;;
72791;SDS011;60907;53.268;8.764;2023-02-28T11:19:47;2.50;;;0.95;;
72791;SDS011;60907;53.268;8.764;2023-02-28T11:22:19;2.45;;;1.05;;
72791;SDS011;60907;53.268;8.764;2023-02-28T11:24:47;2.40;;;0.70;;
72791;SDS011;60907;53.268;8.764;2023-02-28T11:29:56;1.50;;;0.70;;
72791;SDS011;60907;53.268;8.764;2023-02-28T11:32:23;3.60;;;0.88;;
72791;SDS011;60907;53.268;8.764;2023-02-28T11:35:36;1.90;;;0.80;;
72791;SDS011;60907;53.268;8.764;2023-02-28T11:37:37;1.30;;;0.80;;
72791;SDS011;60907;53.268;8.764;2023-02-28T11:40:13;2.80;;;1.00;;
72791;SDS011;60907;53.268;8.764;2023-02-28T11:42:49;2.10;;;0.88;;
72791;SDS011;60907;53.268;8.764;2023-02-28T11:48:27;3.67;;;1.20;;
72791;SDS011;60907;53.268;8.764;2023-02-28T11:53:24;2.53;;;0.93;;
72791;SDS011;60907;53.268;8.764;2023-02-28T11:56:08;2.15;;;0.85;;
72791;SDS011;60907;53.268;8.764;2023-02-28T12:04:17;3.80;;;0.95;;
72791;SDS011;60907;53.268;8.764;2023-02-28T12:09:52;2.65;;;0.82;;
72791;SDS011;60907;53.268;8.764;2023-02-28T12:12:22;1.77;;;0.73;;
72791;SDS011;60907;53.268;8.764;2023-02-28T12:23:05;2.53;;;0.82;;
72791;SDS011;60907;53.268;8.764;2023-02-28T12:28:30;2.95;;;1.40;;
72791;SDS011;60907;53.268;8.764;2023-02-28T12:33:34;2.00;;;1.10;;
72791;SDS011;60907;53.268;8.764;2023-02-28T12:36:05;1.77;;;1.00;;
72791;SDS011;60907;53.268;8.764;2023-02-28T12:38:43;3.05;;;1.30;;
72791;SDS011;60907;53.268;8.764;2023-02-28T12:41:20;1.45;;;0.95;;
72791;SDS011;60907;53.268;8.764;2023-02-28T12:44:08;2.13;;;1.10;;
72791;SDS011;60907;53.268;8.764;2023-02-28T12:46:38;2.33;;;1.23;;
72791;SDS011;60907;53.268;8.764;2023-02-28T12:49:11;2.83;;;1.30;;
72791;SDS011;60907;53.268;8.764;2023-02-28T12:51:38;1.85;;;0.95;;
72791;SDS011;60907;53.268;8.764;2023-02-28T13:10:22;2.00;;;0.77;;
72791;SDS011;60907;53.268;8.764;2023-02-28T13:12:51;1.80;;;1.17;;
72791;SDS011;60907;53.268;8.764;2023-02-28T13:15:23;2.03;;;1.00;;
72791;SDS011;60907;53.268;8.764;2023-02-28T13:17:51;2.35;;;0.98;;
72791;SDS011;60907;53.268;8.764;2023-02-28T13:20:18;1.95;;;0.68;;
72791;SDS011;60907;53.268;8.764;2023-02-28T13:22:47;4.78;;;1.02;;
72791;SDS011;60907;53.268;8.764;2023-02-28T13:27:47;1.95;;;1.42;;
72791;SDS011;60907;53.268;8.764;2023-02-28T13:38:33;2.70;;;1.05;;
72791;SDS011;60907;53.268;8.764;2023-02-28T13:47:28;1.73;;;1.00;;
72791;SDS011;60907;53.268;8.764;2023-02-28T13:49:27;1.55;;;0.70;;
72791;SDS011;60907;53.268;8.764;2023-02-28T14:03:10;4.03;;;1.13;;
72791;SDS011;60907;53.268;8.764;2023-02-28T14:11:25;1.80;;;0.88;;
72791;SDS011;60907;53.268;8.764;2023-02-28T14:13:53;2.42;;;1.15;;
72791;SDS011;60907;53.268;8.764;2023-02-28T14:16:23;1.60;;;1.00;;
72791;SDS011;60907;53.268;8.764;2023-02-28T14:18:55;3.20;;;1.00;;
72791;SDS011;60907;53.268;8.764;2023-02-28T14:31:45;2.13;;;0.88;;
72791;SDS011;60907;53.268;8.764;2023-02-28T14:34:39;1.90;;;0.80;;
72791;SDS011;60907;53.268;8.764;2023-02-28T14:37:29;1.50;;;0.80;;
72791;SDS011;60907;53.268;8.764;2023-02-28T14:39:56;1.83;;;0.80;;
72791;SDS011;60907;53.268;8.764;2023-02-28T14:44:58;2.42;;;0.70;;
72791;SDS011;60907;53.268;8.764;2023-02-28T14:47:26;2.13;;;0.90;;
72791;SDS011;60907;53.268;8.764;2023-02-28T14:49:53;1.73;;;1.02;;
72791;SDS011;60907;53.268;8.764;2023-02-28T14:52:21;1.95;;;0.90;;
72791;SDS011;60907;53.268;8.764;2023-02-28T14:54:59;1.27;;;0.77;;
72791;SDS011;60907;53.268;8.764;2023-02-28T14:57:27;2.28;;;0.98;;
72791;SDS011;60907;53.268;8.764;2023-02-28T15:00:06;2.78;;;0.98;;
72791;SDS011;60907;53.268;8.764;2023-02-28T15:02:40;2.85;;;0.80;;
72791;SDS011;60907;53.268;8.764;2023-02-28T15:07:37;1.52;;;0.90;;
72791;SDS011;60907;53.268;8.764;2023-02-28T15:12:57;1.50;;;0.70;;
72791;SDS011;60907;53.268;8.764;2023-02-28T15:16:12;1.50;;;0.82;;
72791;SDS011;60907;53.268;8.764;2023-02-28T15:18:22;1.88;;;0.77;;
72791;SDS011;60907;53.268;8.764;2023-02-28T15:20:51;2.15;;;0.82;;
72791;SDS011;60907;53.268;8.764;2023-02-28T15:23:18;1.20;;;0.70;;
72791;SDS011;60907;53.268;8.764;2023-02-28T15:25:44;3.03;;;0.95;;
72791;SDS011;60907;53.268;8.764;2023-02-28T15:28:15;2.90;;;0.82;;
72791;SDS011;60907;53.268;8.764;2023-02-28T15:31:00;1.52;;;0.70;;
72791;SDS011;60907;53.268;8.764;2023-02-28T15:33:31;1.23;;;0.93;;
72791;SDS011;60907;53.268;8.764;2023-02-28T15:36:12;1.83;;;0.90;;
72791;SDS011;60907;53.268;8.764;2023-02-28T15:38:39;1.80;;;1.05;;
72791;SDS011;60907;53.268;8.764;2023-02-28T15:41:04;1.90;;;0.90;;
72791;SDS011;60907;53.268;8.764;2023-02-28T15:43:36;2.08;;;0.80;;
72791;SDS011;60907;53.268;8.764;2023-02-28T15:48:30;2.53;;;0.90;;
72791;SDS011;60907;53.268;8.764;2023-02-28T15:51:01;2.50;;;0.90;;
72791;SDS011;60907;53.268;8.764;2023-02-28T15:53:32;4.72;;;0.85;;
72791;SDS011;60907;53.268;8.764;2023-02-28T15:56:03;2.30;;;0.82;;
72791;SDS011;60907;53.268;8.764;2023-02-28T15:58:30;1.90;;;0.70;;
72791;SDS011;60907;53.268;8.764;2023-02-28T16:03:47;2.72;;;1.05;;
72791;SDS011;60907;53.268;8.764;2023-02-28T16:08:55;1.00;;;0.60;;
72791;SDS011;60907;53.268;8.764;2023-02-28T16:11:21;3.17;;;0.80;;
72791;SDS011;60907;53.268;8.764;2023-02-28T16:13:46;1.33;;;0.70;;
72791;SDS011;60907;53.268;8.764;2023-02-28T16:16:22;2.58;;;1.10;;
72791;SDS011;60907;53.268;8.764;2023-02-28T16:18:49;2.58;;;0.80;;
72791;SDS011;60907;53.268;8.764;2023-02-28T16:21:14;1.90;;;0.73;;
72791;SDS011;60907;53.268;8.764;2023-02-28T16:23:40;1.55;;;0.70;;
72791;SDS011;60907;53.268;8.764;2023-02-28T16:26:06;1.60;;;0.80;;
72791;SDS011;60907;53.268;8.764;2023-02-28T16:28:33;2.20;;;1.70;;
72791;SDS011;60907;53.268;8.764;2023-02-28T16:31:01;2.83;;;1.15;;
72791;SDS011;60907;53.268;8.764;2023-02-28T16:33:28;2.28;;;0.90;;
72791;SDS011;60907;53.268;8.764;2023-02-28T16:35:57;1.23;;;0.80;;
72791;SDS011;60907;53.268;8.764;2023-02-28T16:38:23;2.67;;;0.80;;
72791;SDS011;60907;53.268;8.764;2023-02-28T16:40:50;1.73;;;0.75;;
72791;SDS011;60907;53.268;8.764;2023-02-28T16:43:19;2.80;;;1.50;;
72791;SDS011;60907;53.268;8.764;2023-02-28T16:45:47;1.83;;;1.10;;
72791;SDS011;60907;53.268;8.764;2023-02-28T16:48:16;2.00;;;1.17;;
72791;SDS011;60907;53.268;8.764;2023-02-28T16:50:42;4.53;;;1.48;;
72791;SDS011;60907;53.268;8.764;2023-02-28T16:53:09;2.25;;;1.00;;
72791;SDS011;60907;53.268;8.764;2023-02-28T16:55:34;1.65;;;0.90;;
72791;SDS011;60907;53.268;8.764;2023-02-28T16:58:01;2.10;;;0.82;;
72791;SDS011;60907;53.268;8.764;2023-02-28T17:00:27;2.83;;;0.98;;
72791;SDS011;60907;53.268;8.764;2023-02-28T17:02:54;2.80;;;0.90;;
72791;SDS011;60907;53.268;8.764;2023-02-28T17:05:20;3.10;;;1.00;;
72791;SDS011;60907;53.268;8.764;2023-02-28T17:07:46;2.28;;;1.00;;
72791;SDS011;60907;53.268;8.764;2023-02-28T17:10:16;2.65;;;0.90;;
72791;SDS011;60907;53.268;8.764;2023-02-28T17:12:46;3.25;;;1.13;;
72791;SDS011;60907;53.268;8.764;2023-02-28T17:15:12;2.55;;;0.90;;
72791;SDS011;60907;53.268;8.764;2023-02-28T17:17:39;1.75;;;0.85;;
72791;SDS011;60907;53.268;8.764;2023-02-28T17:20:05;3.08;;;1.00;;
72791;SDS011;60907;53.268;8.764;2023-02-28T17:22:31;3.45;;;1.58;;
72791;SDS011;60907;53.268;8.764;2023-02-28T17:24:56;3.80;;;1.58;;
72791;SDS011;60907;53.268;8.764;2023-02-28T17:27:23;5.15;;;2.22;;
72791;SDS011;60907;53.268;8.764;2023-02-28T17:29:49;5.78;;;2.88;;
72791;SDS011;60907;53.268;8.764;2023-02-28T17:32:15;5.22;;;2.45;;
72791;SDS011;60907;53.268;8.764;2023-02-28T17:34:40;2.20;;;1.08;;
72791;SDS011;60907;53.268;8.764;2023-02-28T17:37:07;1.25;;;0.98;;
72791;SDS011;60907;53.268;8.764;2023-02-28T17:39:34;1.38;;;0.63;;
72791;SDS011;60907;53.268;8.764;2023-02-28T17:41:59;1.70;;;0.47;;
72791;SDS011;60907;53.268;8.764;2023-02-28T17:44:25;4.05;;;0.82;;
72791;SDS011;60907;53.268;8.764;2023-02-28T17:46:50;2.58;;;1.30;;
72791;SDS011;60907;53.268;8.764;2023-02-28T17:49:16;4.30;;;2.08;;
72791;SDS011;60907;53.268;8.764;2023-02-28T17:51:42;3.13;;;1.50;;